sensor_id;sensor_type;location;lat;lon;timestamp;pressure;altitude;pressure_sealevel;temperature;humidity
75627;BME280;67372;49.404;11.034;2023-11-18T00:00:52;98927.81;;;5.08;77.99
75627;BME280;67372;49.404;11.034;2023-11-18T00:03:19;98927.66;;;5.09;78.02
75627;BME280;67372;49.404;11.034;2023-11-18T00:05:45;98919.72;;;5.09;78.32
75627;BME280;67372;49.404;11.034;2023-11-18T00:08:12;98937.22;;;5.10;77.79
75627;BME280;67372;49.404;11.034;2023-11-18T00:10:38;98938.88;;;5.11;78.05
75627;BME280;67372;49.404;11.034;2023-11-18T00:13:04;98939.72;;;5.12;77.78
75627;BME280;67372;49.404;11.034;2023-11-18T00:15:31;98937.72;;;5.14;77.48
75627;BME280;67372;49.404;11.034;2023-11-18T00:17:57;98940.69;;;5.19;77.63
75627;BME280;67372;49.404;11.034;2023-11-18T00:20:24;98942.72;;;5.25;77.99
75627;BME280;67372;49.404;11.034;2023-11-18T00:22:50;98940.56;;;5.29;76.97
75627;BME280;67372;49.404;11.034;2023-11-18T00:25:17;98935.59;;;5.34;76.92
75627;BME280;67372;49.404;11.034;2023-11-18T00:27:43;98939.91;;;5.35;76.83
75627;BME280;67372;49.404;11.034;2023-11-18T00:30:10;98936.44;;;5.34;77.15
75627;BME280;67372;49.404;11.034;2023-11-18T00:32:37;98943.03;;;5.38;76.96
75627;BME280;67372;49.404;11.034;2023-11-18T00:35:04;98946.69;;;5.45;77.00
75627;BME280;67372;49.404;11.034;2023-11-18T00:37:30;98947.53;;;5.46;76.21
75627;BME280;67372;49.404;11.034;2023-11-18T00:39:57;98947.69;;;5.44;76.59
75627;BME280;67372;49.404;11.034;2023-11-18T00:42:23;98945.88;;;5.45;76.58
75627;BME280;67372;49.404;11.034;2023-11-18T00:44:50;98940.25;;;5.48;76.59
75627;BME280;67372;49.404;11.034;2023-11-18T00:47:16;98936.28;;;5.52;76.24
75627;BME280;67372;49.404;11.034;2023-11-18T00:49:42;98935.94;;;5.55;77.05
75627;BME280;67372;49.404;11.034;2023-11-18T00:52:09;98933.78;;;5.59;77.04
75627;BME280;67372;49.404;11.034;2023-11-18T00:54:35;98935.25;;;5.61;76.54
75627;BME280;67372;49.404;11.034;2023-11-18T00:57:02;98932.44;;;5.63;76.13
75627;BME280;67372;49.404;11.034;2023-11-18T00:59:28;98930.47;;;5.65;76.02
75627;BME280;67372;49.404;11.034;2023-11-18T01:01:55;98929.31;;;5.67;76.13
75627;BME280;67372;49.404;11.034;2023-11-18T01:04:21;98928.16;;;5.70;76.22
75627;BME280;67372;49.404;11.034;2023-11-18T01:06:47;98937.09;;;5.69;76.55
75627;BME280;67372;49.404;11.034;2023-11-18T01:09:14;98945.19;;;5.67;75.98
75627;BME280;67372;49.404;11.034;2023-11-18T01:11:40;98952.63;;;5.64;76.65
75627;BME280;67372;49.404;11.034;2023-11-18T01:14:27;98948.34;;;5.54;76.75
75627;BME280;67372;49.404;11.034;2023-11-18T01:16:53;98949.84;;;5.49;77.11
75627;BME280;67372;49.404;11.034;2023-11-18T01:19:19;98945.53;;;5.48;76.41
75627;BME280;67372;49.404;11.034;2023-11-18T01:21:46;98946.53;;;5.47;76.59
75627;BME280;67372;49.404;11.034;2023-11-18T01:24:12;98953.81;;;5.45;77.29
75627;BME280;67372;49.404;11.034;2023-11-18T01:26:38;98951.63;;;5.40;76.93
75627;BME280;67372;49.404;11.034;2023-11-18T01:29:05;98951.31;;;5.35;77.16
75627;BME280;67372;49.404;11.034;2023-11-18T01:31:31;98952.63;;;5.31;77.25
75627;BME280;67372;49.404;11.034;2023-11-18T01:34:12;98958.41;;;5.27;77.10
75627;BME280;67372;49.404;11.034;2023-11-18T01:36:39;98956.94;;;5.24;76.44
75627;BME280;67372;49.404;11.034;2023-11-18T01:39:05;98964.50;;;5.19;77.15
75627;BME280;67372;49.404;11.034;2023-11-18T01:41:32;98962.53;;;5.13;76.69
75627;BME280;67372;49.404;11.034;2023-11-18T01:43:58;98970.28;;;5.06;76.75
75627;BME280;67372;49.404;11.034;2023-11-18T01:46:24;98967.63;;;4.98;77.75
75627;BME280;67372;49.404;11.034;2023-11-18T01:48:52;98967.44;;;4.91;76.96
75627;BME280;67372;49.404;11.034;2023-11-18T01:51:18;98960.47;;;4.82;78.02
75627;BME280;67372;49.404;11.034;2023-11-18T01:53:47;98964.44;;;4.78;78.56
75627;BME280;67372;49.404;11.034;2023-11-18T01:56:14;98961.75;;;4.70;78.94
75627;BME280;67372;49.404;11.034;2023-11-18T01:58:40;98956.44;;;4.62;78.07
75627;BME280;67372;49.404;11.034;2023-11-18T02:01:07;98961.22;;;4.58;79.40
75627;BME280;67372;49.404;11.034;2023-11-18T02:03:36;98956.41;;;4.54;79.25
75627;BME280;67372;49.404;11.034;2023-11-18T02:06:03;98967.16;;;4.52;78.85
75627;BME280;67372;49.404;11.034;2023-11-18T02:08:31;98967.31;;;4.51;78.56
75627;BME280;67372;49.404;11.034;2023-11-18T02:11:03;98975.34;;;4.49;78.95
75627;BME280;67372;49.404;11.034;2023-11-18T02:13:34;98964.13;;;4.47;79.90
75627;BME280;67372;49.404;11.034;2023-11-18T02:16:04;98966.09;;;4.45;79.03
75627;BME280;67372;49.404;11.034;2023-11-18T02:18:30;98967.91;;;4.45;79.28
75627;BME280;67372;49.404;11.034;2023-11-18T02:20:57;98971.53;;;4.44;78.94
75627;BME280;67372;49.404;11.034;2023-11-18T02:23:26;98969.22;;;4.41;79.40
75627;BME280;67372;49.404;11.034;2023-11-18T02:25:53;98975.81;;;4.37;79.29
75627;BME280;67372;49.404;11.034;2023-11-18T02:28:19;98978.09;;;4.31;79.25
75627;BME280;67372;49.404;11.034;2023-11-18T02:30:46;98975.25;;;4.25;79.34
75627;BME280;67372;49.404;11.034;2023-11-18T02:33:22;98977.38;;;4.21;80.26
75627;BME280;67372;49.404;11.034;2023-11-18T02:35:59;98965.97;;;4.21;79.65
75627;BME280;67372;49.404;11.034;2023-11-18T02:38:31;98967.13;;;4.18;80.03
75627;BME280;67372;49.404;11.034;2023-11-18T02:41:06;98972.41;;;4.18;79.88
75627;BME280;67372;49.404;11.034;2023-11-18T02:43:36;98973.56;;;4.16;80.33
75627;BME280;67372;49.404;11.034;2023-11-18T02:46:05;98977.19;;;4.15;80.91
75627;BME280;67372;49.404;11.034;2023-11-18T02:48:32;98966.63;;;4.15;80.06
75627;BME280;67372;49.404;11.034;2023-11-18T02:50:59;98969.41;;;4.13;80.67
75627;BME280;67372;49.404;11.034;2023-11-18T02:53:25;98973.34;;;4.09;80.85
75627;BME280;67372;49.404;11.034;2023-11-18T02:55:52;98980.44;;;4.09;80.89
75627;BME280;67372;49.404;11.034;2023-11-18T02:58:19;98985.06;;;4.07;81.03
75627;BME280;67372;49.404;11.034;2023-11-18T03:00:46;98988.84;;;4.04;81.14
75627;BME280;67372;49.404;11.034;2023-11-18T03:03:12;98984.53;;;4.03;80.97
75627;BME280;67372;49.404;11.034;2023-11-18T03:05:39;98978.56;;;4.01;81.80
75627;BME280;67372;49.404;11.034;2023-11-18T03:08:05;98982.66;;;3.95;81.05
75627;BME280;67372;49.404;11.034;2023-11-18T03:10:32;98989.53;;;3.88;81.41
75627;BME280;67372;49.404;11.034;2023-11-18T03:12:59;98988.50;;;3.81;81.63
75627;BME280;67372;49.404;11.034;2023-11-18T03:15:25;98993.88;;;3.72;81.02
75627;BME280;67372;49.404;11.034;2023-11-18T03:17:51;98988.38;;;3.65;81.82
75627;BME280;67372;49.404;11.034;2023-11-18T03:20:19;98990.97;;;3.57;82.13
75627;BME280;67372;49.404;11.034;2023-11-18T03:22:46;98993.88;;;3.54;82.85
75627;BME280;67372;49.404;11.034;2023-11-18T03:25:13;98995.31;;;3.48;82.69
75627;BME280;67372;49.404;11.034;2023-11-18T03:27:40;98988.69;;;3.44;82.57
75627;BME280;67372;49.404;11.034;2023-11-18T03:30:07;98997.28;;;3.46;82.78
75627;BME280;67372;49.404;11.034;2023-11-18T03:32:38;98996.97;;;3.49;83.42
75627;BME280;67372;49.404;11.034;2023-11-18T03:35:06;98999.97;;;3.54;84.09
75627;BME280;67372;49.404;11.034;2023-11-18T03:37:33;98991.94;;;3.56;84.93
75627;BME280;67372;49.404;11.034;2023-11-18T03:39:59;99002.19;;;3.59;84.71
75627;BME280;67372;49.404;11.034;2023-11-18T03:42:25;99001.06;;;3.61;83.57
75627;BME280;67372;49.404;11.034;2023-11-18T03:44:52;98998.56;;;3.60;83.18
75627;BME280;67372;49.404;11.034;2023-11-18T03:47:18;99012.75;;;3.59;83.99
75627;BME280;67372;49.404;11.034;2023-11-18T03:49:44;99007.47;;;3.59;83.42
75627;BME280;67372;49.404;11.034;2023-11-18T03:52:11;99010.09;;;3.59;83.20
75627;BME280;67372;49.404;11.034;2023-11-18T03:54:37;99012.75;;;3.59;83.09
75627;BME280;67372;49.404;11.034;2023-11-18T03:57:04;99020.50;;;3.60;83.25
75627;BME280;67372;49.404;11.034;2023-11-18T03:59:30;99016.34;;;3.58;83.13
75627;BME280;67372;49.404;11.034;2023-11-18T04:01:57;99013.88;;;3.56;83.34
75627;BME280;67372;49.404;11.034;2023-11-18T04:04:23;99013.88;;;3.56;82.86
75627;BME280;67372;49.404;11.034;2023-11-18T04:06:49;99014.84;;;3.55;83.28
75627;BME280;67372;49.404;11.034;2023-11-18T04:09:16;99008.88;;;3.53;84.43
75627;BME280;67372;49.404;11.034;2023-11-18T04:11:42;99014.31;;;3.52;83.72
75627;BME280;67372;49.404;11.034;2023-11-18T04:14:09;99006.09;;;3.55;84.73
75627;BME280;67372;49.404;11.034;2023-11-18T04:16:35;99012.22;;;3.55;84.66
75627;BME280;67372;49.404;11.034;2023-11-18T04:19:02;99013.56;;;3.59;84.38
75627;BME280;67372;49.404;11.034;2023-11-18T04:21:29;99012.28;;;3.63;83.76
75627;BME280;67372;49.404;11.034;2023-11-18T04:23:55;99004.06;;;3.66;84.53
75627;BME280;67372;49.404;11.034;2023-11-18T04:26:22;99009.34;;;3.66;83.75
75627;BME280;67372;49.404;11.034;2023-11-18T04:28:48;99008.50;;;3.66;83.77
75627;BME280;67372;49.404;11.034;2023-11-18T04:31:14;99014.44;;;3.68;83.94
75627;BME280;67372;49.404;11.034;2023-11-18T04:33:41;99008.72;;;3.73;83.88
75627;BME280;67372;49.404;11.034;2023-11-18T04:36:09;99009.91;;;3.78;84.63
75627;BME280;67372;49.404;11.034;2023-11-18T04:38:36;99004.50;;;3.80;84.74
75627;BME280;67372;49.404;11.034;2023-11-18T04:41:02;99010.75;;;3.79;84.58
75627;BME280;67372;49.404;11.034;2023-11-18T04:43:29;99016.03;;;3.79;84.66
75627;BME280;67372;49.404;11.034;2023-11-18T04:46:08;99016.16;;;3.77;85.17
75627;BME280;67372;49.404;11.034;2023-11-18T04:48:34;99010.88;;;3.77;84.82
75627;BME280;67372;49.404;11.034;2023-11-18T04:51:06;99009.91;;;3.78;85.36
75627;BME280;67372;49.404;11.034;2023-11-18T04:53:32;99005.69;;;3.85;84.42
75627;BME280;67372;49.404;11.034;2023-11-18T04:55:58;99001.75;;;3.89;84.19
75627;BME280;67372;49.404;11.034;2023-11-18T04:58:25;98994.34;;;3.93;84.61
75627;BME280;67372;49.404;11.034;2023-11-18T05:00:51;98995.19;;;3.93;84.34
75627;BME280;67372;49.404;11.034;2023-11-18T05:03:18;98989.91;;;3.93;83.42
75627;BME280;67372;49.404;11.034;2023-11-18T05:05:44;98987.41;;;3.92;83.70
75627;BME280;67372;49.404;11.034;2023-11-18T05:08:19;98990.84;;;3.84;83.88
75627;BME280;67372;49.404;11.034;2023-11-18T05:10:47;98983.97;;;3.74;83.09
75627;BME280;67372;49.404;11.034;2023-11-18T05:13:14;98984.09;;;3.64;84.06
75627;BME280;67372;49.404;11.034;2023-11-18T05:15:40;98993.75;;;3.55;83.49
75627;BME280;67372;49.404;11.034;2023-11-18T05:18:07;98994.34;;;3.49;83.90
75627;BME280;67372;49.404;11.034;2023-11-18T05:20:34;98994.28;;;3.41;83.13
75627;BME280;67372;49.404;11.034;2023-11-18T05:23:00;99002.94;;;3.33;82.94
75627;BME280;67372;49.404;11.034;2023-11-18T05:25:27;99010.59;;;3.27;83.98
75627;BME280;67372;49.404;11.034;2023-11-18T05:27:53;98998.72;;;3.23;83.92
75627;BME280;67372;49.404;11.034;2023-11-18T05:30:19;99008.56;;;3.21;83.01
75627;BME280;67372;49.404;11.034;2023-11-18T05:32:46;99008.88;;;3.18;83.05
75627;BME280;67372;49.404;11.034;2023-11-18T05:35:12;99010.00;;;3.15;83.26
75627;BME280;67372;49.404;11.034;2023-11-18T05:37:39;99017.09;;;3.15;83.37
75627;BME280;67372;49.404;11.034;2023-11-18T05:40:06;99011.81;;;3.15;84.18
75627;BME280;67372;49.404;11.034;2023-11-18T05:42:35;99018.75;;;3.16;84.34
75627;BME280;67372;49.404;11.034;2023-11-18T05:45:06;99022.66;;;3.12;84.86
75627;BME280;67372;49.404;11.034;2023-11-18T05:47:36;99016.84;;;3.08;84.27
75627;BME280;67372;49.404;11.034;2023-11-18T05:50:03;99017.69;;;3.08;84.99
75627;BME280;67372;49.404;11.034;2023-11-18T05:52:29;99015.06;;;3.08;85.22
75627;BME280;67372;49.404;11.034;2023-11-18T05:54:55;99013.25;;;3.09;84.61
75627;BME280;67372;49.404;11.034;2023-11-18T05:57:22;99021.44;;;3.06;84.78
75627;BME280;67372;49.404;11.034;2023-11-18T05:59:48;99021.44;;;3.06;85.31
75627;BME280;67372;49.404;11.034;2023-11-18T06:02:15;99030.31;;;3.05;85.62
75627;BME280;67372;49.404;11.034;2023-11-18T06:04:41;99024.78;;;3.08;85.47
75627;BME280;67372;49.404;11.034;2023-11-18T06:07:08;99024.31;;;3.13;85.39
75627;BME280;67372;49.404;11.034;2023-11-18T06:09:34;99025.53;;;3.18;85.85
75627;BME280;67372;49.404;11.034;2023-11-18T06:12:00;99024.91;;;3.24;85.26
75627;BME280;67372;49.404;11.034;2023-11-18T06:14:27;99029.59;;;3.30;85.77
75627;BME280;67372;49.404;11.034;2023-11-18T06:16:53;99026.53;;;3.35;85.74
75627;BME280;67372;49.404;11.034;2023-11-18T06:19:20;99026.06;;;3.39;85.02
75627;BME280;67372;49.404;11.034;2023-11-18T06:21:47;99026.44;;;3.45;85.34
75627;BME280;67372;49.404;11.034;2023-11-18T06:24:13;99026.97;;;3.48;84.71
75627;BME280;67372;49.404;11.034;2023-11-18T06:26:40;99016.09;;;3.51;84.78
75627;BME280;67372;49.404;11.034;2023-11-18T06:29:06;99022.66;;;3.47;86.33
75627;BME280;67372;49.404;11.034;2023-11-18T06:31:33;99019.88;;;3.49;85.28
75627;BME280;67372;49.404;11.034;2023-11-18T06:33:59;99022.22;;;3.52;85.54
75627;BME280;67372;49.404;11.034;2023-11-18T06:36:25;99022.75;;;3.55;85.67
75627;BME280;67372;49.404;11.034;2023-11-18T06:38:52;99021.91;;;3.55;85.87
75627;BME280;67372;49.404;11.034;2023-11-18T06:41:21;99017.19;;;3.58;85.52
75627;BME280;67372;49.404;11.034;2023-11-18T06:43:47;99024.53;;;3.55;85.59
75627;BME280;67372;49.404;11.034;2023-11-18T06:46:13;99026.50;;;3.53;85.94
75627;BME280;67372;49.404;11.034;2023-11-18T06:48:40;99020.97;;;3.56;86.17
75627;BME280;67372;49.404;11.034;2023-11-18T06:51:06;99019.81;;;3.58;85.78
75627;BME280;67372;49.404;11.034;2023-11-18T06:53:34;99018.00;;;3.59;85.83
75627;BME280;67372;49.404;11.034;2023-11-18T06:56:00;99013.16;;;3.54;87.55
75627;BME280;67372;49.404;11.034;2023-11-18T06:58:27;99020.72;;;3.49;87.13
75627;BME280;67372;49.404;11.034;2023-11-18T07:00:54;99015.28;;;3.51;86.52
75627;BME280;67372;49.404;11.034;2023-11-18T07:03:21;99017.50;;;3.55;86.60
75627;BME280;67372;49.404;11.034;2023-11-18T07:05:47;99020.81;;;3.57;87.09
75627;BME280;67372;49.404;11.034;2023-11-18T07:08:14;99021.63;;;3.58;87.36
75627;BME280;67372;49.404;11.034;2023-11-18T07:10:41;99029.69;;;3.56;86.26
75627;BME280;67372;49.404;11.034;2023-11-18T07:13:07;99040.78;;;3.60;86.83
75627;BME280;67372;49.404;11.034;2023-11-18T07:15:34;99037.38;;;3.67;86.99
75627;BME280;67372;49.404;11.034;2023-11-18T07:18:01;99045.50;;;3.74;87.20
75627;BME280;67372;49.404;11.034;2023-11-18T07:20:27;99052.13;;;3.78;86.70
75627;BME280;67372;49.404;11.034;2023-11-18T07:22:54;99045.06;;;3.79;86.71
75627;BME280;67372;49.404;11.034;2023-11-18T07:25:20;99055.31;;;3.82;87.02
75627;BME280;67372;49.404;11.034;2023-11-18T07:27:46;99057.13;;;3.81;86.70
75627;BME280;67372;49.404;11.034;2023-11-18T07:30:13;99061.25;;;3.84;86.77
75627;BME280;67372;49.404;11.034;2023-11-18T07:32:39;99053.72;;;3.89;86.28
75627;BME280;67372;49.404;11.034;2023-11-18T07:35:06;99056.56;;;3.95;87.10
75627;BME280;67372;49.404;11.034;2023-11-18T07:37:32;99049.16;;;3.99;86.97
75627;BME280;67372;49.404;11.034;2023-11-18T07:39:59;99049.09;;;4.09;86.47
75627;BME280;67372;49.404;11.034;2023-11-18T07:42:25;99061.50;;;4.16;85.89
75627;BME280;67372;49.404;11.034;2023-11-18T07:44:52;99064.91;;;4.26;86.02
75627;BME280;67372;49.404;11.034;2023-11-18T07:47:18;99065.44;;;4.38;85.58
75627;BME280;67372;49.404;11.034;2023-11-18T07:49:45;99067.16;;;4.47;86.24
75627;BME280;67372;49.404;11.034;2023-11-18T07:52:12;99072.03;;;4.60;85.35
75627;BME280;67372;49.404;11.034;2023-11-18T07:54:38;99064.81;;;4.70;84.88
75627;BME280;67372;49.404;11.034;2023-11-18T07:57:05;99071.47;;;4.82;84.90
75627;BME280;67372;49.404;11.034;2023-11-18T07:59:31;99077.00;;;4.97;84.98
75627;BME280;67372;49.404;11.034;2023-11-18T08:01:58;99068.94;;;5.07;84.86
75627;BME280;67372;49.404;11.034;2023-11-18T08:04:24;99062.06;;;5.22;84.45
75627;BME280;67372;49.404;11.034;2023-11-18T08:06:51;99067.38;;;5.38;84.05
75627;BME280;67372;49.404;11.034;2023-11-18T08:09:17;99076.53;;;5.60;84.68
75627;BME280;67372;49.404;11.034;2023-11-18T08:11:45;99076.56;;;5.76;83.61
75627;BME280;67372;49.404;11.034;2023-11-18T08:14:11;99083.16;;;5.89;83.36
75627;BME280;67372;49.404;11.034;2023-11-18T08:16:37;99085.53;;;6.00;81.95
75627;BME280;67372;49.404;11.034;2023-11-18T08:19:04;99084.22;;;6.04;81.95
75627;BME280;67372;49.404;11.034;2023-11-18T08:21:30;99082.53;;;6.11;82.07
75627;BME280;67372;49.404;11.034;2023-11-18T08:23:57;99079.41;;;6.24;81.89
75627;BME280;67372;49.404;11.034;2023-11-18T08:26:23;99064.66;;;6.29;80.04
75627;BME280;67372;49.404;11.034;2023-11-18T08:28:50;99062.84;;;6.30;80.92
75627;BME280;67372;49.404;11.034;2023-11-18T08:31:16;99059.03;;;6.32;80.71
75627;BME280;67372;49.404;11.034;2023-11-18T08:33:43;99060.16;;;6.38;80.59
75627;BME280;67372;49.404;11.034;2023-11-18T08:36:09;99065.31;;;6.39;80.39
75627;BME280;67372;49.404;11.034;2023-11-18T08:38:36;99064.81;;;6.36;79.54
75627;BME280;67372;49.404;11.034;2023-11-18T08:41:03;99063.34;;;6.25;79.73
75627;BME280;67372;49.404;11.034;2023-11-18T08:43:29;99069.31;;;6.27;80.59
75627;BME280;67372;49.404;11.034;2023-11-18T08:45:55;99060.19;;;6.30;80.48
75627;BME280;67372;49.404;11.034;2023-11-18T08:48:23;99062.66;;;6.31;80.21
75627;BME280;67372;49.404;11.034;2023-11-18T08:50:51;99067.81;;;6.25;80.26
75627;BME280;67372;49.404;11.034;2023-11-18T08:53:17;99068.81;;;6.24;80.52
75627;BME280;67372;49.404;11.034;2023-11-18T08:55:44;99073.59;;;6.28;80.67
75627;BME280;67372;49.404;11.034;2023-11-18T08:58:11;99081.69;;;6.35;80.57
75627;BME280;67372;49.404;11.034;2023-11-18T09:00:38;99083.88;;;6.39;80.62
75627;BME280;67372;49.404;11.034;2023-11-18T09:03:04;99071.09;;;6.35;80.30
75627;BME280;67372;49.404;11.034;2023-11-18T09:05:32;99082.72;;;6.42;80.66
75627;BME280;67372;49.404;11.034;2023-11-18T09:07:59;99086.00;;;6.52;80.37
75627;BME280;67372;49.404;11.034;2023-11-18T09:10:26;99083.00;;;6.63;80.69
75627;BME280;67372;49.404;11.034;2023-11-18T09:12:53;99080.50;;;6.70;80.05
75627;BME280;67372;49.404;11.034;2023-11-18T09:15:21;99076.16;;;6.77;79.96
75627;BME280;67372;49.404;11.034;2023-11-18T09:17:48;99072.63;;;6.85;79.83
75627;BME280;67372;49.404;11.034;2023-11-18T09:20:15;99067.19;;;6.86;79.61
75627;BME280;67372;49.404;11.034;2023-11-18T09:22:42;99066.69;;;6.91;79.92
75627;BME280;67372;49.404;11.034;2023-11-18T09:25:09;99071.91;;;7.07;80.11
75627;BME280;67372;49.404;11.034;2023-11-18T09:27:36;99072.88;;;7.14;77.83
75627;BME280;67372;49.404;11.034;2023-11-18T09:30:02;99062.56;;;7.19;78.62
75627;BME280;67372;49.404;11.034;2023-11-18T09:32:29;99054.09;;;7.24;79.22
75627;BME280;67372;49.404;11.034;2023-11-18T09:34:55;99045.13;;;7.25;77.98
75627;BME280;67372;49.404;11.034;2023-11-18T09:37:22;99056.69;;;7.32;78.78
75627;BME280;67372;49.404;11.034;2023-11-18T09:39:48;99058.66;;;7.38;78.04
75627;BME280;67372;49.404;11.034;2023-11-18T09:42:15;99056.38;;;7.35;77.85
75627;BME280;67372;49.404;11.034;2023-11-18T09:44:41;99052.34;;;7.39;77.89
75627;BME280;67372;49.404;11.034;2023-11-18T09:47:08;99061.31;;;7.38;77.93
75627;BME280;67372;49.404;11.034;2023-11-18T09:49:40;99059.03;;;7.35;77.85
75627;BME280;67372;49.404;11.034;2023-11-18T09:52:15;99058.03;;;7.36;77.77
75627;BME280;67372;49.404;11.034;2023-11-18T09:54:50;99052.84;;;7.43;78.42
75627;BME280;67372;49.404;11.034;2023-11-18T09:57:33;99052.41;;;7.54;78.48
75627;BME280;67372;49.404;11.034;2023-11-18T10:00:04;99051.38;;;7.63;77.46
75627;BME280;67372;49.404;11.034;2023-11-18T10:02:30;99051.78;;;7.75;77.86
75627;BME280;67372;49.404;11.034;2023-11-18T10:04:58;99059.53;;;7.84;77.63
75627;BME280;67372;49.404;11.034;2023-11-18T10:07:26;99045.63;;;7.97;77.28
75627;BME280;67372;49.404;11.034;2023-11-18T10:09:56;99044.91;;;8.03;76.46
75627;BME280;67372;49.404;11.034;2023-11-18T10:12:24;99038.44;;;8.06;76.34
75627;BME280;67372;49.404;11.034;2023-11-18T10:14:50;99030.28;;;8.07;76.82
75627;BME280;67372;49.404;11.034;2023-11-18T10:17:17;99037.53;;;8.13;76.54
75627;BME280;67372;49.404;11.034;2023-11-18T10:19:57;99035.88;;;8.12;75.38
75627;BME280;67372;49.404;11.034;2023-11-18T10:22:26;99026.44;;;8.10;75.69
75627;BME280;67372;49.404;11.034;2023-11-18T10:24:56;99040.00;;;8.15;76.54
75627;BME280;67372;49.404;11.034;2023-11-18T10:27:24;99036.63;;;8.21;75.93
75627;BME280;67372;49.404;11.034;2023-11-18T10:29:54;99048.06;;;8.21;75.63
75627;BME280;67372;49.404;11.034;2023-11-18T10:32:21;99043.41;;;8.23;76.13
75627;BME280;67372;49.404;11.034;2023-11-18T10:34:48;99040.38;;;8.26;75.87
75627;BME280;67372;49.404;11.034;2023-11-18T10:37:16;99035.16;;;8.18;75.75
75627;BME280;67372;49.404;11.034;2023-11-18T10:39:47;99034.50;;;8.16;75.49
75627;BME280;67372;49.404;11.034;2023-11-18T10:42:14;99040.28;;;8.20;76.16
75627;BME280;67372;49.404;11.034;2023-11-18T10:44:54;99032.53;;;8.33;75.67
75627;BME280;67372;49.404;11.034;2023-11-18T10:47:21;99037.97;;;8.40;76.06
75627;BME280;67372;49.404;11.034;2023-11-18T10:49:50;99039.72;;;8.47;75.46
75627;BME280;67372;49.404;11.034;2023-11-18T10:52:19;99034.97;;;8.57;75.64
75627;BME280;67372;49.404;11.034;2023-11-18T10:54:52;99033.31;;;8.71;75.65
75627;BME280;67372;49.404;11.034;2023-11-18T10:57:20;99041.03;;;8.81;75.54
75627;BME280;67372;49.404;11.034;2023-11-18T10:59:59;99039.09;;;9.04;75.20
75627;BME280;67372;49.404;11.034;2023-11-18T11:02:30;99039.13;;;9.26;73.58
75627;BME280;67372;49.404;11.034;2023-11-18T11:04:57;99039.09;;;9.40;74.34
75627;BME280;67372;49.404;11.034;2023-11-18T11:07:24;99028.00;;;9.58;73.13
75627;BME280;67372;49.404;11.034;2023-11-18T11:09:52;99027.50;;;9.69;71.21
75627;BME280;67372;49.404;11.034;2023-11-18T11:12:19;99019.25;;;9.85;72.59
75627;BME280;67372;49.404;11.034;2023-11-18T11:14:54;99021.44;;;9.97;69.16
75627;BME280;67372;49.404;11.034;2023-11-18T11:17:27;99022.28;;;10.04;67.85
75627;BME280;67372;49.404;11.034;2023-11-18T11:20:06;99022.59;;;10.15;69.91
75627;BME280;67372;49.404;11.034;2023-11-18T11:22:38;99026.72;;;10.18;68.86
75627;BME280;67372;49.404;11.034;2023-11-18T11:27:54;99016.97;;;10.25;65.84
75627;BME280;67372;49.404;11.034;2023-11-18T11:30:22;99016.88;;;10.19;68.22
75627;BME280;67372;49.404;11.034;2023-11-18T11:32:51;99020.94;;;10.14;68.57
75627;BME280;67372;49.404;11.034;2023-11-18T11:35:30;99017.44;;;10.14;69.09
75627;BME280;67372;49.404;11.034;2023-11-18T11:37:59;99013.41;;;10.18;68.26
75627;BME280;67372;49.404;11.034;2023-11-18T11:40:26;99009.63;;;10.12;66.87
75627;BME280;67372;49.404;11.034;2023-11-18T11:42:53;99011.44;;;10.05;67.78
75627;BME280;67372;49.404;11.034;2023-11-18T11:45:24;98998.06;;;9.99;67.69
75627;BME280;67372;49.404;11.034;2023-11-18T11:47:51;99000.34;;;10.02;68.11
75627;BME280;67372;49.404;11.034;2023-11-18T11:50:22;99008.59;;;10.07;67.61
75627;BME280;67372;49.404;11.034;2023-11-18T11:52:56;98994.38;;;10.00;64.37
75627;BME280;67372;49.404;11.034;2023-11-18T11:55:42;98997.69;;;10.02;65.56
75627;BME280;67372;49.404;11.034;2023-11-18T11:58:26;98992.84;;;9.91;65.11
75627;BME280;67372;49.404;11.034;2023-11-18T12:00:52;98985.25;;;9.88;66.87
75627;BME280;67372;49.404;11.034;2023-11-18T12:03:24;98973.44;;;9.97;68.50
75627;BME280;67372;49.404;11.034;2023-11-18T12:05:54;98973.66;;;9.95;65.97
75627;BME280;67372;49.404;11.034;2023-11-18T12:08:22;98970.41;;;10.00;67.89
75627;BME280;67372;49.404;11.034;2023-11-18T12:10:53;98965.53;;;10.10;67.76
75627;BME280;67372;49.404;11.034;2023-11-18T12:13:20;98955.88;;;10.09;66.96
75627;BME280;67372;49.404;11.034;2023-11-18T12:15:55;98953.72;;;10.19;66.85
75627;BME280;67372;49.404;11.034;2023-11-18T12:18:25;98940.50;;;10.32;66.73
75627;BME280;67372;49.404;11.034;2023-11-18T12:20:51;98925.78;;;10.43;66.83
75627;BME280;67372;49.404;11.034;2023-11-18T12:23:18;98919.84;;;10.48;65.05
75627;BME280;67372;49.404;11.034;2023-11-18T12:25:44;98918.25;;;10.53;65.68
75627;BME280;67372;49.404;11.034;2023-11-18T12:28:15;98908.38;;;10.54;64.56
75627;BME280;67372;49.404;11.034;2023-11-18T12:30:43;98908.31;;;10.40;65.11
75627;BME280;67372;49.404;11.034;2023-11-18T12:33:10;98907.25;;;10.35;64.73
75627;BME280;67372;49.404;11.034;2023-11-18T12:36:03;98898.22;;;10.29;63.62
75627;BME280;67372;49.404;11.034;2023-11-18T12:41:34;98882.03;;;10.37;64.99
75627;BME280;67372;49.404;11.034;2023-11-18T12:46:53;98867.50;;;10.40;65.11
75627;BME280;67372;49.404;11.034;2023-11-18T12:49:24;98869.16;;;10.41;64.92
75627;BME280;67372;49.404;11.034;2023-11-18T12:51:55;98868.50;;;10.39;64.20
75627;BME280;67372;49.404;11.034;2023-11-18T12:54:23;98871.19;;;10.39;65.35
75627;BME280;67372;49.404;11.034;2023-11-18T12:56:51;98866.66;;;10.39;64.87
75627;BME280;67372;49.404;11.034;2023-11-18T12:59:17;98872.19;;;10.31;65.64
75627;BME280;67372;49.404;11.034;2023-11-18T13:01:46;98872.19;;;10.31;65.62
75627;BME280;67372;49.404;11.034;2023-11-18T13:04:13;98865.59;;;10.27;64.75
75627;BME280;67372;49.404;11.034;2023-11-18T13:06:40;98855.22;;;10.11;63.35
75627;BME280;67372;49.404;11.034;2023-11-18T13:09:06;98862.16;;;10.05;64.81
75627;BME280;67372;49.404;11.034;2023-11-18T13:11:33;98871.97;;;9.98;64.70